Osage River (Missouri), Saint Thomas (06926510)

StateMissouriLatestUnknown (29000 cfs)
RiverOsage RiverRatingObservedEstimated
Updated2020-02-25 22:45 (22 minutes ago)Flood - The river is flooding. Obstacles can be treacherous or deadly. The river should be avoided at this stage for casual trips and definitely for the inexperienced. Trips should be attempted only with protective gear and equipment.Flood(none)(none)
Discharge29000 cfs (median: 8740 cfs)High - The river is high and potentially dangerous, especially for the young and / or inexperienced. Normal stream obstacles are sometimes difficult to navigate. Extended distances can be attempted, but canoe travel may not be advisable.High(none)(none)
Height11.61 feetGood - Conditions are ideal for a canoe or kayak. Boats typically will drag on fewer than one-quarter of riffles, if at all, and portages are unnecessary or rare. Normal float lengths can be attempted without a problem.Good(none)(none)
TrendSteady (rising over 24 hours)Low - River is low but can still be floated. Some riffles are okay but most come with significant dragging and might need a portage. Float lengths should be reduced to accommodate low flow, dragging, and portages.Low(none)(none)
USGSExternal icon USGS Site (External icon Google Maps)Poor - River is too low to float comfortably. Most or all riffles will drag or must be portaged and some obstacles (such as slick shelf rock) cause undue problems. Avoid the river at this stage for casual paddling trips.Poor(none)(none)

Trending Data

Plot Image

Trips for Osage River (Missouri), Saint Thomas (06926510)

DateStartEndDistanceConditionDischargeHeightFishingDetails

A total of 0 rows are displayed.

Condition Descriptions

Fishing Conditions

Fish Species

Notes

Classic Trip List

The classic River Trips application is still available for use. It is updated with the new system using a data retrofit. It is no longer maintained. The original River Trips application is no longer updated (as of 1 Dec 2016) but can be checked for errors or for the condition of the data before it was converted to the new system.

Gauge Data Table

ObservationHeightDischargeMaximum
Discharge
Minimum
Discharge
Mean
Discharge
P05P10P20P25P50
(Median)
P75P80P90P95
2020-02-25 22:45 11.61 29000 34300 (2018) 1320 (2014) 14300 1370 1660 2900 3240 8740 27300 30400 33100 34200
2020-02-25 21:45 11.61 29000 34300 (2018) 1320 (2014) 14300 1370 1660 2900 3240 8740 27300 30400 33100 34200
2020-02-25 20:45 11.54 28800 34300 (2018) 1320 (2014) 14300 1370 1660 2900 3240 8740 27300 30400 33100 34200
2020-02-25 19:45 11.48 28600 34300 (2018) 1320 (2014) 14300 1370 1660 2900 3240 8740 27300 30400 33100 34200
2020-02-25 18:45 11.42 28400 34300 (2018) 1320 (2014) 14300 1370 1660 2900 3240 8740 27300 30400 33100 34200
2020-02-25 17:45 11.35 28100 34300 (2018) 1320 (2014) 14300 1370 1660 2900 3240 8740 27300 30400 33100 34200
2020-02-25 16:45 11.24 27700 34300 (2018) 1320 (2014) 14300 1370 1660 2900 3240 8740 27300 30400 33100 34200
2020-02-25 15:45 11.13 27300 34300 (2018) 1320 (2014) 14300 1370 1660 2900 3240 8740 27300 30400 33100 34200
2020-02-25 14:45 10.93 26500 34300 (2018) 1320 (2014) 14300 1370 1660 2900 3240 8740 27300 30400 33100 34200
2020-02-25 13:45 10.83 26200 34300 (2018) 1320 (2014) 14300 1370 1660 2900 3240 8740 27300 30400 33100 34200
2020-02-25 12:45 10.69 25600 34300 (2018) 1320 (2014) 14300 1370 1660 2900 3240 8740 27300 30400 33100 34200
2020-02-25 11:45 10.51 25000 34300 (2018) 1320 (2014) 14300 1370 1660 2900 3240 8740 27300 30400 33100 34200
2020-02-25 10:45 10.36 24400 34300 (2018) 1320 (2014) 14300 1370 1660 2900 3240 8740 27300 30400 33100 34200
2020-02-25 09:45 10.24 24000 34300 (2018) 1320 (2014) 14300 1370 1660 2900 3240 8740 27300 30400 33100 34200
2020-02-25 08:45 9.96 22900 34300 (2018) 1320 (2014) 14300 1370 1660 2900 3240 8740 27300 30400 33100 34200
2020-02-25 07:45 9.93 22800 34300 (2018) 1320 (2014) 14300 1370 1660 2900 3240 8740 27300 30400 33100 34200
2020-02-25 06:45 9.85 22500 34300 (2018) 1320 (2014) 14300 1370 1660 2900 3240 8740 27300 30400 33100 34200
2020-02-25 05:45 9.81 22300 34300 (2018) 1320 (2014) 14300 1370 1660 2900 3240 8740 27300 30400 33100 34200
2020-02-25 04:45 9.79 22300 34300 (2018) 1320 (2014) 14300 1370 1660 2900 3240 8740 27300 30400 33100 34200
2020-02-25 03:45 9.91 22700 34300 (2018) 1320 (2014) 14300 1370 1660 2900 3240 8740 27300 30400 33100 34200
2020-02-25 02:45 10.02 23100 34300 (2018) 1320 (2014) 14300 1370 1660 2900 3240 8740 27300 30400 33100 34200
2020-02-25 01:45 10.09 23400 34300 (2018) 1320 (2014) 14300 1370 1660 2900 3240 8740 27300 30400 33100 34200
2020-02-25 00:45 10.17 23700 34300 (2018) 1320 (2014) 14300 1370 1660 2900 3240 8740 27300 30400 33100 34200
2020-02-24 23:45 10.24 24000 32900 (2005) 1340 (2014) 13600 1440 2030 3080 4080 11600 23000 24600 30600 32900
2020-02-24 22:45 10.29 24200 32900 (2005) 1340 (2014) 13600 1440 2030 3080 4080 11600 23000 24600 30600 32900
2020-02-24 21:45 10.28 24100 32900 (2005) 1340 (2014) 13600 1440 2030 3080 4080 11600 23000 24600 30600 32900
2020-02-24 20:45 10.20 23800 32900 (2005) 1340 (2014) 13600 1440 2030 3080 4080 11600 23000 24600 30600 32900
2020-02-24 19:45 10.15 23700 32900 (2005) 1340 (2014) 13600 1440 2030 3080 4080 11600 23000 24600 30600 32900
2020-02-24 18:45 9.95 22900 32900 (2005) 1340 (2014) 13600 1440 2030 3080 4080 11600 23000 24600 30600 32900
2020-02-24 17:45 9.75 22100 32900 (2005) 1340 (2014) 13600 1440 2030 3080 4080 11600 23000 24600 30600 32900
2020-02-24 16:45 9.56 21400 32900 (2005) 1340 (2014) 13600 1440 2030 3080 4080 11600 23000 24600 30600 32900
2020-02-24 15:45 9.33 20600 32900 (2005) 1340 (2014) 13600 1440 2030 3080 4080 11600 23000 24600 30600 32900
2020-02-24 14:45 9.12 19800 32900 (2005) 1340 (2014) 13600 1440 2030 3080 4080 11600 23000 24600 30600 32900
2020-02-24 13:45 8.93 19200 32900 (2005) 1340 (2014) 13600 1440 2030 3080 4080 11600 23000 24600 30600 32900
2020-02-24 12:45 8.75 18600 32900 (2005) 1340 (2014) 13600 1440 2030 3080 4080 11600 23000 24600 30600 32900
2020-02-24 11:45 8.62 18100 32900 (2005) 1340 (2014) 13600 1440 2030 3080 4080 11600 23000 24600 30600 32900
2020-02-24 10:45 8.46 17500 32900 (2005) 1340 (2014) 13600 1440 2030 3080 4080 11600 23000 24600 30600 32900
2020-02-24 09:45 8.31 17000 32900 (2005) 1340 (2014) 13600 1440 2030 3080 4080 11600 23000 24600 30600 32900
2020-02-24 08:45 8.14 16500 32900 (2005) 1340 (2014) 13600 1440 2030 3080 4080 11600 23000 24600 30600 32900
2020-02-24 07:45 7.98 15900 32900 (2005) 1340 (2014) 13600 1440 2030 3080 4080 11600 23000 24600 30600 32900
2020-02-24 06:45 7.83 15400 32900 (2005) 1340 (2014) 13600 1440 2030 3080 4080 11600 23000 24600 30600 32900
2020-02-24 05:45 7.70 15000 32900 (2005) 1340 (2014) 13600 1440 2030 3080 4080 11600 23000 24600 30600 32900
2020-02-24 04:45 7.58 14600 32900 (2005) 1340 (2014) 13600 1440 2030 3080 4080 11600 23000 24600 30600 32900
2020-02-24 03:45 7.46 14200 32900 (2005) 1340 (2014) 13600 1440 2030 3080 4080 11600 23000 24600 30600 32900
2020-02-24 02:45 7.34 13800 32900 (2005) 1340 (2014) 13600 1440 2030 3080 4080 11600 23000 24600 30600 32900
2020-02-24 01:45 7.23 13400 32900 (2005) 1340 (2014) 13600 1440 2030 3080 4080 11600 23000 24600 30600 32900
2020-02-24 00:45 7.12 13100 32900 (2005) 1340 (2014) 13600 1440 2030 3080 4080 11600 23000 24600 30600 32900
2020-02-23 23:45 7.01 12700 33800 (2005) 1330 (2014) 13000 1630 3550 4380 4810 8890 23400 24300 29200 33300
2020-02-23 22:45 6.92 12500 33800 (2005) 1330 (2014) 13000 1630 3550 4380 4810 8890 23400 24300 29200 33300
2020-02-23 21:45 6.85 12200 33800 (2005) 1330 (2014) 13000 1630 3550 4380 4810 8890 23400 24300 29200 33300
2020-02-23 20:45 6.80 12100 33800 (2005) 1330 (2014) 13000 1630 3550 4380 4810 8890 23400 24300 29200 33300
2020-02-23 19:45 6.77 12000 33800 (2005) 1330 (2014) 13000 1630 3550 4380 4810 8890 23400 24300 29200 33300
2020-02-23 18:45 6.74 11900 33800 (2005) 1330 (2014) 13000 1630 3550 4380 4810 8890 23400 24300 29200 33300
2020-02-23 17:45 6.70 11800 33800 (2005) 1330 (2014) 13000 1630 3550 4380 4810 8890 23400 24300 29200 33300
2020-02-23 16:45 6.67 11700 33800 (2005) 1330 (2014) 13000 1630 3550 4380 4810 8890 23400 24300 29200 33300
2020-02-23 15:45 6.66 11700 33800 (2005) 1330 (2014) 13000 1630 3550 4380 4810 8890 23400 24300 29200 33300
2020-02-23 14:45 6.66 11700 33800 (2005) 1330 (2014) 13000 1630 3550 4380 4810 8890 23400 24300 29200 33300
2020-02-23 13:45 6.68 11700 33800 (2005) 1330 (2014) 13000 1630 3550 4380 4810 8890 23400 24300 29200 33300
2020-02-23 12:45 6.70 11800 33800 (2005) 1330 (2014) 13000 1630 3550 4380 4810 8890 23400 24300 29200 33300
2020-02-23 11:45 6.74 11900 33800 (2005) 1330 (2014) 13000 1630 3550 4380 4810 8890 23400 24300 29200 33300
2020-02-23 10:45 6.83 12200 33800 (2005) 1330 (2014) 13000 1630 3550 4380 4810 8890 23400 24300 29200 33300
2020-02-23 09:45 6.89 12400 33800 (2005) 1330 (2014) 13000 1630 3550 4380 4810 8890 23400 24300 29200 33300
2020-02-23 08:45 6.98 12600 33800 (2005) 1330 (2014) 13000 1630 3550 4380 4810 8890 23400 24300 29200 33300
2020-02-23 07:45 7.04 12800 33800 (2005) 1330 (2014) 13000 1630 3550 4380 4810 8890 23400 24300 29200 33300
2020-02-23 06:45 7.12 13100 33800 (2005) 1330 (2014) 13000 1630 3550 4380 4810 8890 23400 24300 29200 33300
2020-02-23 05:45 7.17 13200 33800 (2005) 1330 (2014) 13000 1630 3550 4380 4810 8890 23400 24300 29200 33300
2020-02-23 04:45 7.23 13400 33800 (2005) 1330 (2014) 13000 1630 3550 4380 4810 8890 23400 24300 29200 33300
2020-02-23 03:45 7.29 13600 33800 (2005) 1330 (2014) 13000 1630 3550 4380 4810 8890 23400 24300 29200 33300
2020-02-23 02:45 7.34 13800 33800 (2005) 1330 (2014) 13000 1630 3550 4380 4810 8890 23400 24300 29200 33300
2020-02-23 01:45 7.40 14000 33800 (2005) 1330 (2014) 13000 1630 3550 4380 4810 8890 23400 24300 29200 33300
2020-02-23 00:45 7.46 14200 33800 (2005) 1330 (2014) 13000 1630 3550 4380 4810 8890 23400 24300 29200 33300
2020-02-22 23:45 7.54 14500 34100 (2005) 1370 (2014) 12100 1470 2530 4940 5200 6940 19500 21700 29900 33800
2020-02-22 22:45 7.63 14800 34100 (2005) 1370 (2014) 12100 1470 2530 4940 5200 6940 19500 21700 29900 33800
2020-02-22 21:45 7.78 15300 34100 (2005) 1370 (2014) 12100 1470 2530 4940 5200 6940 19500 21700 29900 33800
2020-02-22 20:45 7.90 15700 34100 (2005) 1370 (2014) 12100 1470 2530 4940 5200 6940 19500 21700 29900 33800
2020-02-22 19:45 8.04 16100 34100 (2005) 1370 (2014) 12100 1470 2530 4940 5200 6940 19500 21700 29900 33800
2020-02-22 18:45 8.17 16600 34100 (2005) 1370 (2014) 12100 1470 2530 4940 5200 6940 19500 21700 29900 33800
2020-02-22 17:45 8.32 17100 34100 (2005) 1370 (2014) 12100 1470 2530 4940 5200 6940 19500 21700 29900 33800
2020-02-22 16:45 8.44 17500 34100 (2005) 1370 (2014) 12100 1470 2530 4940 5200 6940 19500 21700 29900 33800
2020-02-22 15:45 8.55 17900 34100 (2005) 1370 (2014) 12100 1470 2530 4940 5200 6940 19500 21700 29900 33800
2020-02-22 14:45 8.63 18100 34100 (2005) 1370 (2014) 12100 1470 2530 4940 5200 6940 19500 21700 29900 33800
2020-02-22 13:45 8.69 18300 34100 (2005) 1370 (2014) 12100 1470 2530 4940 5200 6940 19500 21700 29900 33800
2020-02-22 12:45 8.72 18500 34100 (2005) 1370 (2014) 12100 1470 2530 4940 5200 6940 19500 21700 29900 33800
2020-02-22 11:45 8.75 18600 34100 (2005) 1370 (2014) 12100 1470 2530 4940 5200 6940 19500 21700 29900 33800
2020-02-22 10:45 8.79 18700 34100 (2005) 1370 (2014) 12100 1470 2530 4940 5200 6940 19500 21700 29900 33800
2020-02-22 09:45 8.82 18800 34100 (2005) 1370 (2014) 12100 1470 2530 4940 5200 6940 19500 21700 29900 33800
2020-02-22 08:45 8.85 18900 34100 (2005) 1370 (2014) 12100 1470 2530 4940 5200 6940 19500 21700 29900 33800
2020-02-22 07:45 8.90 19100 34100 (2005) 1370 (2014) 12100 1470 2530 4940 5200 6940 19500 21700 29900 33800
2020-02-22 06:45 8.89 19000 34100 (2005) 1370 (2014) 12100 1470 2530 4940 5200 6940 19500 21700 29900 33800
2020-02-22 05:45 8.84 18900 34100 (2005) 1370 (2014) 12100 1470 2530 4940 5200 6940 19500 21700 29900 33800
2020-02-22 04:45 8.76 18600 34100 (2005) 1370 (2014) 12100 1470 2530 4940 5200 6940 19500 21700 29900 33800
2020-02-22 03:45 8.64 18200 34100 (2005) 1370 (2014) 12100 1470 2530 4940 5200 6940 19500 21700 29900 33800
2020-02-22 02:45 8.51 17700 34100 (2005) 1370 (2014) 12100 1470 2530 4940 5200 6940 19500 21700 29900 33800
2020-02-22 01:45 8.40 17300 34100 (2005) 1370 (2014) 12100 1470 2530 4940 5200 6940 19500 21700 29900 33800
2020-02-22 00:45 8.30 17000 34100 (2005) 1370 (2014) 12100 1470 2530 4940 5200 6940 19500 21700 29900 33800
2020-02-21 23:45 8.30 17000 34900 (2005) 1370 (2014) 11300 1400 2200 4590 5550 8180 17700 18900 20700 32800
2020-02-21 22:45 8.32 17100 34900 (2005) 1370 (2014) 11300 1400 2200 4590 5550 8180 17700 18900 20700 32800
2020-02-21 21:45 8.44 17500 34900 (2005) 1370 (2014) 11300 1400 2200 4590 5550 8180 17700 18900 20700 32800
2020-02-21 20:45 8.55 17900 34900 (2005) 1370 (2014) 11300 1400 2200 4590 5550 8180 17700 18900 20700 32800
2020-02-21 19:45 8.66 18200 34900 (2005) 1370 (2014) 11300 1400 2200 4590 5550 8180 17700 18900 20700 32800
2020-02-21 18:45 8.80 18700 34900 (2005) 1370 (2014) 11300 1400 2200 4590 5550 8180 17700 18900 20700 32800
2020-02-21 17:45 8.86 18900 34900 (2005) 1370 (2014) 11300 1400 2200 4590 5550 8180 17700 18900 20700 32800
2020-02-21 16:45 8.91 19100 34900 (2005) 1370 (2014) 11300 1400 2200 4590 5550 8180 17700 18900 20700 32800
2020-02-21 15:45 8.91 19100 34900 (2005) 1370 (2014) 11300 1400 2200 4590 5550 8180 17700 18900 20700 32800
2020-02-21 14:45 8.84 18900 34900 (2005) 1370 (2014) 11300 1400 2200 4590 5550 8180 17700 18900 20700 32800
2020-02-21 13:45 8.72 18500 34900 (2005) 1370 (2014) 11300 1400 2200 4590 5550 8180 17700 18900 20700 32800
2020-02-21 12:45 8.58 18000 34900 (2005) 1370 (2014) 11300 1400 2200 4590 5550 8180 17700 18900 20700 32800
2020-02-21 11:45 8.42 17400 34900 (2005) 1370 (2014) 11300 1400 2200 4590 5550 8180 17700 18900 20700 32800
2020-02-21 10:45 8.30 17000 34900 (2005) 1370 (2014) 11300 1400 2200 4590 5550 8180 17700 18900 20700 32800
2020-02-21 09:45 8.20 16700 34900 (2005) 1370 (2014) 11300 1400 2200 4590 5550 8180 17700 18900 20700 32800
2020-02-21 08:45 8.11 16400 34900 (2005) 1370 (2014) 11300 1400 2200 4590 5550 8180 17700 18900 20700 32800
2020-02-21 07:45 8.00 16000 34900 (2005) 1370 (2014) 11300 1400 2200 4590 5550 8180 17700 18900 20700 32800
2020-02-21 06:45 7.93 15800 34900 (2005) 1370 (2014) 11300 1400 2200 4590 5550 8180 17700 18900 20700 32800
2020-02-21 05:45 7.91 15700 34900 (2005) 1370 (2014) 11300 1400 2200 4590 5550 8180 17700 18900 20700 32800
2020-02-21 04:45 7.88 15600 34900 (2005) 1370 (2014) 11300 1400 2200 4590 5550 8180 17700 18900 20700 32800
2020-02-21 03:45 7.89 15600 34900 (2005) 1370 (2014) 11300 1400 2200 4590 5550 8180 17700 18900 20700 32800
2020-02-21 02:45 7.89 15600 34900 (2005) 1370 (2014) 11300 1400 2200 4590 5550 8180 17700 18900 20700 32800
2020-02-21 01:45 7.91 15700 34900 (2005) 1370 (2014) 11300 1400 2200 4590 5550 8180 17700 18900 20700 32800
2020-02-21 00:45 7.96 15900 34900 (2005) 1370 (2014) 11300 1400 2200 4590 5550 8180 17700 18900 20700 32800
2020-02-20 23:45 8.02 16100 35100 (2005) 1390 (2014) 12300 1520 2270 3050 3740 9850 21100 21600 26400 34000
2020-02-20 22:45 8.11 16400 35100 (2005) 1390 (2014) 12300 1520 2270 3050 3740 9850 21100 21600 26400 34000
2020-02-20 21:45 8.20 16700 35100 (2005) 1390 (2014) 12300 1520 2270 3050 3740 9850 21100 21600 26400 34000
2020-02-20 20:45 8.30 17000 35100 (2005) 1390 (2014) 12300 1520 2270 3050 3740 9850 21100 21600 26400 34000
2020-02-20 19:45 8.40 17300 35100 (2005) 1390 (2014) 12300 1520 2270 3050 3740 9850 21100 21600 26400 34000
2020-02-20 18:45 8.48 17600 35100 (2005) 1390 (2014) 12300 1520 2270 3050 3740 9850 21100 21600 26400 34000
2020-02-20 17:45 8.54 17800 35100 (2005) 1390 (2014) 12300 1520 2270 3050 3740 9850 21100 21600 26400 34000
2020-02-20 16:45 8.52 17800 35100 (2005) 1390 (2014) 12300 1520 2270 3050 3740 9850 21100 21600 26400 34000
2020-02-20 15:45 8.58 18000 35100 (2005) 1390 (2014) 12300 1520 2270 3050 3740 9850 21100 21600 26400 34000
2020-02-20 14:45 8.60 18000 35100 (2005) 1390 (2014) 12300 1520 2270 3050 3740 9850 21100 21600 26400 34000
2020-02-20 13:45 8.61 18100 35100 (2005) 1390 (2014) 12300 1520 2270 3050 3740 9850 21100 21600 26400 34000
2020-02-20 12:45 8.62 18100 35100 (2005) 1390 (2014) 12300 1520 2270 3050 3740 9850 21100 21600 26400 34000
2020-02-20 11:45 8.65 18200 35100 (2005) 1390 (2014) 12300 1520 2270 3050 3740 9850 21100 21600 26400 34000
2020-02-20 10:45 8.68 18300 35100 (2005) 1390 (2014) 12300 1520 2270 3050 3740 9850 21100 21600 26400 34000
2020-02-20 09:45 8.70 18400 35100 (2005) 1390 (2014) 12300 1520 2270 3050 3740 9850 21100 21600 26400 34000
2020-02-20 08:45 8.69 18300 35100 (2005) 1390 (2014) 12300 1520 2270 3050 3740 9850 21100 21600 26400 34000
2020-02-20 07:45 8.65 18200 35100 (2005) 1390 (2014) 12300 1520 2270 3050 3740 9850 21100 21600 26400 34000
2020-02-20 06:45 8.62 18100 35100 (2005) 1390 (2014) 12300 1520 2270 3050 3740 9850 21100 21600 26400 34000
2020-02-20 05:45 8.60 18000 35100 (2005) 1390 (2014) 12300 1520 2270 3050 3740 9850 21100 21600 26400 34000
2020-02-20 04:45 8.57 17900 35100 (2005) 1390 (2014) 12300 1520 2270 3050 3740 9850 21100 21600 26400 34000
2020-02-20 03:45 8.54 17800 35100 (2005) 1390 (2014) 12300 1520 2270 3050 3740 9850 21100 21600 26400 34000
2020-02-20 02:45 8.52 17800 35100 (2005) 1390 (2014) 12300 1520 2270 3050 3740 9850 21100 21600 26400 34000
2020-02-20 01:45 8.49 17600 35100 (2005) 1390 (2014) 12300 1520 2270 3050 3740 9850 21100 21600 26400 34000
2020-02-20 00:45 8.45 17500 35100 (2005) 1390 (2014) 12300 1520 2270 3050 3740 9850 21100 21600 26400 34000
2020-02-19 23:45 8.41 17400 35300 (2005) 1380 (2014) 12300 1410 1800 3210 4240 8680 19500 22700 32200 35200
2020-02-19 22:45 8.37 17200 35300 (2005) 1380 (2014) 12300 1410 1800 3210 4240 8680 19500 22700 32200 35200
2020-02-19 21:45 8.37 17200 35300 (2005) 1380 (2014) 12300 1410 1800 3210 4240 8680 19500 22700 32200 35200
2020-02-19 20:45 8.37 17200 35300 (2005) 1380 (2014) 12300 1410 1800 3210 4240 8680 19500 22700 32200 35200
2020-02-19 19:45 8.36 17200 35300 (2005) 1380 (2014) 12300 1410 1800 3210 4240 8680 19500 22700 32200 35200
2020-02-19 18:45 8.36 17200 35300 (2005) 1380 (2014) 12300 1410 1800 3210 4240 8680 19500 22700 32200 35200
2020-02-19 17:45 8.36 17200 35300 (2005) 1380 (2014) 12300 1410 1800 3210 4240 8680 19500 22700 32200 35200
2020-02-19 16:45 8.33 17100 35300 (2005) 1380 (2014) 12300 1410 1800 3210 4240 8680 19500 22700 32200 35200
2020-02-19 15:45 8.29 17000 35300 (2005) 1380 (2014) 12300 1410 1800 3210 4240 8680 19500 22700 32200 35200
2020-02-19 14:45 8.26 16900 35300 (2005) 1380 (2014) 12300 1410 1800 3210 4240 8680 19500 22700 32200 35200
2020-02-19 13:45 8.25 16800 35300 (2005) 1380 (2014) 12300 1410 1800 3210 4240 8680 19500 22700 32200 35200
2020-02-19 12:45 8.22 16700 35300 (2005) 1380 (2014) 12300 1410 1800 3210 4240 8680 19500 22700 32200 35200
2020-02-19 11:45 8.20 16700 35300 (2005) 1380 (2014) 12300 1410 1800 3210 4240 8680 19500 22700 32200 35200
2020-02-19 10:45 8.21 16700 35300 (2005) 1380 (2014) 12300 1410 1800 3210 4240 8680 19500 22700 32200 35200
2020-02-19 09:45 8.19 16600 35300 (2005) 1380 (2014) 12300 1410 1800 3210 4240 8680 19500 22700 32200 35200
2020-02-19 08:45 8.16 16500 35300 (2005) 1380 (2014) 12300 1410 1800 3210 4240 8680 19500 22700 32200 35200
2020-02-19 07:45 8.17 16600 35300 (2005) 1380 (2014) 12300 1410 1800 3210 4240 8680 19500 22700 32200 35200
2020-02-19 06:45 8.16 16500 35300 (2005) 1380 (2014) 12300 1410 1800 3210 4240 8680 19500 22700 32200 35200
2020-02-19 05:45 8.14 16500 35300 (2005) 1380 (2014) 12300 1410 1800 3210 4240 8680 19500 22700 32200 35200
2020-02-19 04:45 8.13 16400 35300 (2005) 1380 (2014) 12300 1410 1800 3210 4240 8680 19500 22700 32200 35200
2020-02-19 03:45 8.08 16300 35300 (2005) 1380 (2014) 12300 1410 1800 3210 4240 8680 19500 22700 32200 35200
2020-02-19 02:45 8.03 16100 35300 (2005) 1380 (2014) 12300 1410 1800 3210 4240 8680 19500 22700 32200 35200
2020-02-19 01:45 7.93 15800 35300 (2005) 1380 (2014) 12300 1410 1800 3210 4240 8680 19500 22700 32200 35200
2020-02-19 00:45 7.84 15500 35300 (2005) 1380 (2014) 12300 1410 1800 3210 4240 8680 19500 22700 32200 35200
2020-02-18 23:45 7.72 15100 35700 (2005) 1180 (2018) 11300 1210 1450 2270 2840 8090 17000 19200 31500 35500
2020-02-18 22:45 7.59 14600 35700 (2005) 1180 (2018) 11300 1210 1450 2270 2840 8090 17000 19200 31500 35500
2020-02-18 21:45 7.50 14300 35700 (2005) 1180 (2018) 11300 1210 1450 2270 2840 8090 17000 19200 31500 35500
2020-02-18 20:45 7.38 13900 35700 (2005) 1180 (2018) 11300 1210 1450 2270 2840 8090 17000 19200 31500 35500
2020-02-18 19:45 7.31 13700 35700 (2005) 1180 (2018) 11300 1210 1450 2270 2840 8090 17000 19200 31500 35500
2020-02-18 18:45 7.23 13400 35700 (2005) 1180 (2018) 11300 1210 1450 2270 2840 8090 17000 19200 31500 35500
2020-02-18 17:45 7.18 13300 35700 (2005) 1180 (2018) 11300 1210 1450 2270 2840 8090 17000 19200 31500 35500
2020-02-18 16:45 7.12 13100 35700 (2005) 1180 (2018) 11300 1210 1450 2270 2840 8090 17000 19200 31500 35500
2020-02-18 15:45 7.14 13100 35700 (2005) 1180 (2018) 11300 1210 1450 2270 2840 8090 17000 19200 31500 35500
2020-02-18 14:45 7.17 13200 35700 (2005) 1180 (2018) 11300 1210 1450 2270 2840 8090 17000 19200 31500 35500
2020-02-18 13:45 7.25 13500 35700 (2005) 1180 (2018) 11300 1210 1450 2270 2840 8090 17000 19200 31500 35500
2020-02-18 12:45 7.36 13900 35700 (2005) 1180 (2018) 11300 1210 1450 2270 2840 8090 17000 19200 31500 35500
2020-02-18 11:45 7.48 14300 35700 (2005) 1180 (2018) 11300 1210 1450 2270 2840 8090 17000 19200 31500 35500
2020-02-18 10:45 7.64 14800 35700 (2005) 1180 (2018) 11300 1210 1450 2270 2840 8090 17000 19200 31500 35500
2020-02-18 09:45 7.78 15300 35700 (2005) 1180 (2018) 11300 1210 1450 2270 2840 8090 17000 19200 31500 35500
2020-02-18 08:45 7.96 15900 35700 (2005) 1180 (2018) 11300 1210 1450 2270 2840 8090 17000 19200 31500 35500
2020-02-18 07:45 8.12 16400 35700 (2005) 1180 (2018) 11300 1210 1450 2270 2840 8090 17000 19200 31500 35500
2020-02-18 06:45 8.28 16900 35700 (2005) 1180 (2018) 11300 1210 1450 2270 2840 8090 17000 19200 31500 35500
2020-02-18 05:45 8.44 17500 35700 (2005) 1180 (2018) 11300 1210 1450 2270 2840 8090 17000 19200 31500 35500
2020-02-18 04:45 8.58 18000 35700 (2005) 1180 (2018) 11300 1210 1450 2270 2840 8090 17000 19200 31500 35500
2020-02-18 03:45 8.70 18400 35700 (2005) 1180 (2018) 11300 1210 1450 2270 2840 8090 17000 19200 31500 35500
2020-02-18 02:45 8.80 18700 35700 (2005) 1180 (2018) 11300 1210 1450 2270 2840 8090 17000 19200 31500 35500
2020-02-18 01:45 8.87 19000 35700 (2005) 1180 (2018) 11300 1210 1450 2270 2840 8090 17000 19200 31500 35500
2020-02-18 00:45 8.89 19000 35700 (2005) 1180 (2018) 11300 1210 1450 2270 2840 8090 17000 19200 31500 35500

A total of 191 rows are displayed for years 1997 through 2019.